Elim, Georgia
Current Conditions -  °F | °C
As of 12:58 PM on Wednesday 28 Jan 2015 (Local Time) from KLHW Reporting Station
Clear Clear  
Wind Chill: 47°   Ceiling: Unl
Heat Index: 50°   Visibility: 10mi
Dew Point: 23°   Wind: 8mph
Humidity: 35%   Direction: 360°N
Pressure: 30.24"   Gusts: NA
Location:  31.755°N, 81.7451°W
Report Text: KLHW 281758Z AUTO 36007KT 10SM CLR 10/M05 A3024 RMK AO2 SLPNO T00991051 10100 21014 58005
Loading
Personal Weather Stations






























Interactive Weather Map New forecast layout! Learn more

10-Day Weather Forecast

Advertisements
Track Severe Weather on mobile